Time;durP1;ratioP1;P1;durP2;ratioP2;P2;SDS_P1;SDS_P2;PMS_P1;PMS_P2;Temp;Humidity;BMP_temperature;BMP_pressure;BME280_temperature;BME280_humidity;BME280_pressure;Samples;Min_cycle;Max_cycle;Signal;HPM_P1;HPM_P2
2023/10/23 00:23:03;;;;;;;;;;;;;;;;;;;;;
2023/10/23 00:26:42;;;;;;;;;;;;;;;;;;;;;
2023/10/23 00:29:40;;;;;;;2.43;1.20;;;14.50;99.90;;;;;;5030632;28;20915;-88
2023/10/23 00:33:02;;;;;;;1.40;1.30;;;14.40;99.90;;;;;;5062471;28;20474;-89
2023/10/23 00:40:16;;;;;;;1.43;1.33;;;14.50;99.90;;;;;;4999740;28;20466;-89
2023/10/23 00:43:28;;;;;;;1.90;1.67;;;14.50;99.90;;;;;;4947223;28;20480;-88
2023/10/23 00:47:00;;;;;;;3.43;1.80;;;14.40;99.90;;;;;;4983312;28;20471;-91
2023/10/23 00:50:08;;;;;;;2.90;2.00;;;14.60;99.90;;;;;;5322436;22;20503;-88
2023/10/23 00:53:14;;;;;;;;;;;;;;;;;;;;;
2023/10/23 02:58:17;;;;;;;3.00;2.27;;;12.80;99.90;;;;;;5064566;26;20451;-88
2023/10/23 03:01:25;;;;;;;4.07;2.13;;;12.90;99.90;;;;;;5053332;28;20832;-87
2023/10/23 03:04:26;;;;;;;2.73;2.53;;;13.00;99.90;;;;;;5060969;28;20730;-88
2023/10/23 03:07:25;;;;;;;2.27;2.07;;;13.10;99.90;;;;;;5060868;28;20443;-89
2023/10/23 03:10:24;;;;;;;1.80;1.70;;;13.20;99.90;;;;;;5006736;28;20447;-88
2023/10/23 03:13:23;;;;;;;;;;;;;;;;;;;;;
2023/10/23 03:19:46;;;;;;;4.90;1.80;;;13.30;99.90;;;;;;5078719;28;20467;-89
2023/10/23 03:23:13;;;;;;;5.97;2.33;;;13.00;99.90;;;;;;5046425;28;20483;-90
2023/10/23 03:26:42;;;;;;;;;;;;;;;;;;;;;
2023/10/23 03:29:54;;;;;;;3.23;2.53;;;13.00;99.90;;;;;;4884514;28;20476;-88
2023/10/23 03:32:52;;;;;;;2.30;2.10;;;13.10;99.90;;;;;;4961889;28;20879;-89
2023/10/23 03:35:45;;;;;;;2.70;1.93;;;13.10;99.90;;;;;;5044906;28;20459;-90
2023/10/23 03:38:39;;;;;;;2.50;1.90;;;13.10;99.90;;;;;;5048345;28;20477;-88
2023/10/23 03:45:35;;;;;;;1.90;1.80;;;13.20;99.90;;;;;;5074741;28;20459;-88
2023/10/23 03:48:48;;;;;;;2.63;1.90;;;13.00;99.90;;;;;;5060887;28;20427;-87
2023/10/23 03:51:58;;;;;;;;;;;;;;;;;;;;;
2023/10/23 03:58:46;;;;;;;;;;;;;;;;;;;;;
2023/10/23 04:08:53;;;;;;;2.67;2.20;;;13.00;99.90;;;;;;5084600;28;20407;-92
2023/10/23 04:12:22;;;;;;;2.10;1.80;;;13.00;99.90;;;;;;5047922;28;20487;-91
2023/10/23 04:15:42;;;;;;;;;;;;;;;;;;;;;
2023/10/23 04:18:53;;;;;;;2.40;2.10;;;13.00;99.90;;;;;;5063866;28;21040;-89
2023/10/23 04:22:05;;;;;;;3.80;2.07;;;12.90;99.90;;;;;;5038058;28;20563;-89
2023/10/23 04:25:17;;;;;;;4.47;2.83;;;12.80;99.90;;;;;;5056737;28;20458;-89
2023/10/23 04:28:40;;;;;;;3.70;2.10;;;12.70;99.90;;;;;;4995745;28;20538;-90
2023/10/23 04:31:30;;;;;;;7.10;2.57;;;12.60;99.90;;;;;;4974138;28;20475;-90
2023/10/23 04:34:25;;;;;;;3.30;2.07;;;12.50;99.90;;;;;;4989714;28;20451;-88
2023/10/23 04:41:27;;;;;;;2.80;2.00;;;12.30;99.90;;;;;;5012537;28;20486;-89
2023/10/23 04:44:08;;;;;;;4.73;1.97;;;12.20;99.90;;;;;;4996491;28;20546;-89
2023/10/23 04:47:23;;;;;;;4.30;2.20;;;12.20;99.90;;;;;;4991793;28;20473;-89
2023/10/23 04:50:51;;;;;;;2.40;2.17;;;12.20;99.90;;;;;;4988591;28;20447;-88
2023/10/23 04:54:05;;;;;;;5.07;2.10;;;12.20;99.90;;;;;;4984063;28;20466;-89
2023/10/23 04:57:09;;;;;;;4.50;2.60;;;12.30;99.90;;;;;;4975739;28;21293;-87
2023/10/23 05:00:18;;;;;;;4.80;2.77;;;12.20;99.90;;;;;;5070201;28;20455;-88
2023/10/23 05:04:02;;;;;;;5.87;3.20;;;12.20;99.90;;;;;;4991038;28;20492;-88
2023/10/23 05:06:58;;;;;;;5.37;2.93;;;12.10;99.90;;;;;;5056013;28;20478;-87
2023/10/23 05:10:01;;;;;;;6.20;2.87;;;12.20;99.90;;;;;;5050963;28;20451;-87
2023/10/23 05:13:22;;;;;;;6.13;2.47;;;12.20;99.90;;;;;;5043686;28;20986;-89
2023/10/23 05:16:12;;;;;;;6.80;3.13;;;12.30;99.90;;;;;;5062342;28;20497;-87
2023/10/23 05:18:59;;;;;;;5.03;3.13;;;12.20;99.90;;;;;;5057101;28;20550;-88
2023/10/23 05:22:20;;;;;;;4.00;3.00;;;12.10;99.90;;;;;;5060053;28;20471;-89
2023/10/23 05:25:06;;;;;;;4.20;3.80;;;12.20;99.90;;;;;;5009561;28;20448;-88
2023/10/23 05:28:09;;;;;;;4.93;2.77;;;12.20;99.90;;;;;;5057858;28;20436;-90
2023/10/23 05:35:25;;;;;;;;;;;;;;;;;;;;;
2023/10/23 05:38:26;;;;;;;3.70;2.40;;;12.30;99.90;;;;;;5035213;28;20523;-89
2023/10/23 06:08:12;;;;;;;3.40;2.73;;;11.90;99.90;;;;;;5055234;28;20436;-87
2023/10/23 06:10:43;;;;;;;4.90;2.60;;;12.00;99.90;;;;;;5040588;28;20448;-89
2023/10/23 06:13:13;;;;;;;4.90;2.97;;;11.90;99.90;;;;;;5018313;28;20496;-88
2023/10/23 06:15:41;;;;;;;4.30;3.10;;;12.10;99.90;;;;;;5030469;28;20819;-90
2023/10/23 06:18:08;;;;;;;3.20;2.57;;;12.10;99.90;;;;;;5023392;28;20513;-86
2023/10/23 06:20:36;;;;;;;14.00;3.67;;;12.20;99.90;;;;;;5021966;28;21047;-90
2023/10/23 06:23:03;;;;;;;5.40;2.97;;;12.10;99.90;;;;;;5021560;28;20584;-89
2023/10/23 06:25:31;;;;;;;5.53;3.33;;;12.20;99.90;;;;;;5020714;28;20459;-88
2023/10/23 06:27:58;;;;;;;3.50;2.83;;;12.30;99.90;;;;;;5027215;28;20452;-89
2023/10/23 06:30:25;;;;;;;3.87;3.10;;;12.20;99.90;;;;;;5037642;28;20461;-88
2023/10/23 06:32:52;;;;;;;4.60;3.40;;;12.10;99.90;;;;;;5037642;28;20457;-89
2023/10/23 06:35:20;;;;;;;4.60;3.30;;;12.20;99.90;;;;;;5033654;28;20464;-87
2023/10/23 06:37:48;;;;;;;3.40;3.10;;;12.20;99.90;;;;;;5045926;28;20479;-89
2023/10/23 06:40:18;;;;;;;3.33;3.03;;;12.20;99.90;;;;;;5028905;28;20460;-88
2023/10/23 06:51:33;;;;;;;5.30;3.70;;;12.10;99.90;;;;;;4970489;28;20543;-89
2023/10/23 07:10:01;;;;;;;;;;;;;;;;;;;;;
2023/10/23 07:56:45;;;;;;;8.00;6.23;;;11.60;99.90;;;;;;4996342;28;20469;-89
2023/10/23 08:07:05;;;;;;;;;;;;;;;;;;;;;
2023/10/23 08:35:39;;;;;;;10.23;5.67;;;11.80;99.90;;;;;;5074136;22;21596;-88
2023/10/23 08:38:43;;;;;;;9.63;6.13;;;11.80;99.90;;;;;;5075469;28;20455;-88
2023/10/23 08:42:30;;;;;;;;;;;;;;;;;;;;;
2023/10/23 09:37:53;;;;;;;4.60;4.00;;;12.80;99.90;;;;;;5084537;28;20459;-90
2023/10/23 09:52:55;;;;;;;;;;;;;;;;;;;;;
2023/10/23 09:56:08;;;;;;;6.07;5.07;;;12.90;99.90;;;;;;5060841;28;20427;-89
2023/10/23 09:59:21;;;;;;;5.17;4.60;;;12.90;99.90;;;;;;5054018;28;20451;-89
2023/10/23 10:02:39;;;;;;;6.50;4.50;;;13.00;99.90;;;;;;5041812;28;20497;-91
2023/10/23 10:06:09;;;;;;;5.53;4.27;;;13.30;99.90;;;;;;4972885;28;20452;-89
2023/10/23 10:09:46;;;;;;;4.67;4.10;;;13.30;99.90;;;;;;4974433;28;20465;-89
2023/10/23 10:13:08;;;;;;;5.37;3.80;;;13.30;99.90;;;;;;5006707;28;20469;-87
2023/10/23 10:16:33;;;;;;;5.33;3.40;;;13.50;99.90;;;;;;4943778;29;20468;-90
2023/10/23 10:23:13;;;;;;;;;;;;;;;;;;;;;
2023/10/23 10:30:09;;;;;;;7.70;3.40;;;13.80;99.90;;;;;;5050409;28;20474;-92
2023/10/23 10:33:41;;;;;;;3.90;3.20;;;14.00;99.90;;;;;;5041776;28;20536;-91
2023/10/23 10:36:45;;;;;;;3.13;2.60;;;14.10;99.90;;;;;;5038053;28;20921;-89
2023/10/23 10:51:30;;;;;;;7.80;3.17;;;14.50;99.90;;;;;;5047902;28;20444;-89
2023/10/23 10:54:32;;;;;;;2.40;2.20;;;14.70;99.90;;;;;;5049412;28;20450;-89
2023/10/23 12:16:44;;;;;;;2.83;1.57;;;15.30;99.90;;;;;;5109904;28;20466;-88
2023/10/23 12:34:57;;;;;;;1.70;1.50;;;15.50;99.90;;;;;;5045617;28;20448;-88
2023/10/23 12:37:57;;;;;;;3.30;1.70;;;15.60;99.90;;;;;;5065751;28;20519;-90
2023/10/23 12:40:27;;;;;;;2.20;1.30;;;15.60;99.90;;;;;;5061846;28;20487;-88
2023/10/23 12:43:10;;;;;;;2.73;1.57;;;15.70;99.90;;;;;;5205529;22;20566;-89
2023/10/23 12:49:47;;;;;;;6.90;1.93;;;16.00;99.90;;;;;;5056158;28;20479;-88
2023/10/23 12:53:05;;;;;;;1.60;1.13;;;16.10;99.90;;;;;;5061560;28;20494;-88
2023/10/23 12:55:56;;;;;;;2.70;1.47;;;16.20;99.90;;;;;;5082253;28;20531;-91
2023/10/23 12:58:37;;;;;;;3.10;1.53;;;16.00;99.90;;;;;;5018816;28;20449;-89
2023/10/23 13:02:03;;;;;;;2.40;1.37;;;16.20;99.90;;;;;;5035200;28;20451;-89
2023/10/23 13:06:00;;;;;;;;;;;;;;;;;;;;;
2023/10/23 13:15:49;;;;;;;2.50;1.40;;;15.90;99.90;;;;;;5023770;28;20457;-88
2023/10/23 13:18:47;;;;;;;2.33;1.60;;;16.00;99.90;;;;;;4975423;28;20420;-89
2023/10/23 13:24:26;;;;;;;1.50;1.40;;;15.90;99.90;;;;;;5182270;22;20574;-89
2023/10/23 13:27:41;;;;;;;2.10;1.20;;;15.90;99.90;;;;;;5067758;28;20427;-89
2023/10/23 13:31:14;;;;;;;1.57;1.03;;;16.00;99.90;;;;;;5076547;28;20444;-89
2023/10/23 13:34:12;;;;;;;2.07;1.27;;;15.90;99.90;;;;;;5057813;28;20425;-88
2023/10/23 13:37:13;;;;;;;1.63;1.40;;;16.00;99.90;;;;;;5132458;22;20479;-87
2023/10/23 13:40:23;;;;;;;3.43;1.60;;;16.00;99.90;;;;;;5061003;28;20470;-88
2023/10/23 13:43:52;;;;;;;1.93;1.47;;;16.00;99.90;;;;;;5068484;28;20467;-88
2023/10/23 13:48:31;;;;;;;1.77;1.33;;;16.10;99.60;;;;;;5051218;28;20447;-87
2023/10/23 13:51:06;;;;;;;;;;;;;;;;;;;;;
2023/10/23 13:54:16;;;;;;;2.83;1.20;;;16.10;99.30;;;;;;5044182;28;20455;-88
2023/10/23 13:57:23;;;;;;;2.33;1.53;;;16.10;99.10;;;;;;5013623;28;20500;-86
2023/10/23 14:00:25;;;;;;;3.77;1.17;;;16.00;99.40;;;;;;5070039;28;20448;-88
2023/10/23 14:04:07;;;;;;;7.67;2.67;;;16.00;99.20;;;;;;5026458;28;20468;-87
2023/10/23 14:07:20;;;;;;;2.37;1.50;;;15.90;99.30;;;;;;5046636;28;20457;-88
2023/10/23 14:10:33;;;;;;;3.63;1.93;;;15.90;99.50;;;;;;5063591;28;20461;-88
2023/10/23 14:14:18;;;;;;;4.20;1.43;;;15.90;99.30;;;;;;5051053;28;20453;-90
2023/10/23 14:17:34;;;;;;;;;;;;;;;;;;;;;
2023/10/23 14:24:26;;;;;;;2.33;1.33;;;15.80;99.30;;;;;;4893055;29;20496;-89
2023/10/23 14:27:51;;;;;;;3.23;1.40;;;15.80;99.60;;;;;;4883097;29;20447;-88
2023/10/23 14:31:29;;;;;;;;;;;;;;;;;;;;;
2023/10/23 14:34:20;;;;;;;2.13;1.50;;;15.70;99.60;;;;;;4898779;29;20467;-89
2023/10/23 14:37:21;;;;;;;1.60;1.50;;;15.70;99.90;;;;;;4892313;29;20451;-87
2023/10/23 14:40:10;;;;;;;3.60;1.40;;;15.70;99.80;;;;;;4889585;29;20475;-88
2023/10/23 14:43:19;;;;;;;2.87;1.20;;;15.70;99.90;;;;;;4878082;29;20893;-88
2023/10/23 14:46:51;;;;;;;;;;;;;;;;;;;;;
2023/10/23 14:49:46;;;;;;;4.20;2.00;;;15.70;99.90;;;;;;4900681;29;20869;-88
2023/10/23 14:52:57;;;;;;;1.67;1.33;;;15.80;99.90;;;;;;4866256;29;20463;-88
2023/10/23 14:56:08;;;;;;;3.30;1.50;;;15.80;99.90;;;;;;4942121;29;20434;-87
2023/10/23 15:12:14;;;;;;;3.93;1.80;;;15.80;99.90;;;;;;5106546;22;20499;-87
2023/10/23 15:19:25;;;;;;;2.73;1.57;;;15.90;99.90;;;;;;4995889;28;20486;-88
2023/10/23 15:23:21;;;;;;;3.40;1.70;;;15.80;99.90;;;;;;4934383;29;20477;-88
2023/10/23 15:37:22;;;;;;;3.30;2.10;;;15.80;99.90;;;;;;4914441;29;20514;-89
2023/10/23 16:03:14;;;;;;;4.10;3.03;;;15.30;99.90;;;;;;5066841;28;20488;-87
2023/10/23 16:10:08;;;;;;;3.37;2.10;;;15.40;99.90;;;;;;4868178;29;20433;-88
2023/10/23 16:12:57;;;;;;;3.37;1.93;;;15.30;99.90;;;;;;4853166;29;20557;-89
2023/10/23 16:18:42;;;;;;;4.53;2.07;;;15.30;99.90;;;;;;5214358;22;20491;-88
2023/10/23 16:21:25;;;;;;;5.67;2.00;;;15.20;99.90;;;;;;5047397;28;20465;-89
2023/10/23 16:24:22;;;;;;;2.90;1.67;;;15.10;99.90;;;;;;5042446;28;20483;-91
2023/10/23 16:27:12;;;;;;;4.83;2.27;;;15.00;99.90;;;;;;5043122;28;20460;-89
2023/10/23 18:09:36;;;;;;;;;;;;;;;;;;;;;
2023/10/23 18:13:00;;;;;;;4.17;2.00;;;14.30;99.90;;;;;;5085407;28;20520;-90
2023/10/23 18:16:40;;;;;;;6.57;1.90;;;14.10;99.90;;;;;;5057591;28;20437;-90
2023/10/23 18:24:05;;;;;;;7.50;2.40;;;14.10;99.90;;;;;;4964183;28;20477;-87
2023/10/23 18:27:41;;;;;;;2.50;2.00;;;14.10;99.90;;;;;;4962170;28;20468;-88
2023/10/23 18:30:31;;;;;;;2.77;1.90;;;14.10;99.90;;;;;;4984700;28;20505;-89
2023/10/23 18:33:47;;;;;;;2.90;2.10;;;14.20;99.90;;;;;;5063781;28;20481;-89
2023/10/23 18:37:10;;;;;;;3.60;1.90;;;14.20;99.90;;;;;;5063668;28;20428;-88
2023/10/23 19:02:56;;;;;;;;;;;;;;;;;;;;;
2023/10/23 19:05:44;;;;;;;2.17;2.00;;;14.10;99.90;;;;;;5009816;28;20446;-88
2023/10/23 20:26:07;;;;;;;2.77;1.53;;;14.40;99.90;;;;;;5057279;28;20481;-87
2023/10/23 22:03:25;;;;;;;2.13;1.80;;;14.50;99.90;;;;;;5191285;22;20760;-89
2023/10/23 22:08:55;;;;;;;2.53;1.77;;;14.80;99.90;;;;;;5369404;22;20475;-88
2023/10/23 22:11:29;;;;;;;3.73;2.27;;;14.70;99.90;;;;;;5094002;28;20474;-88
2023/10/23 22:14:22;;;;;;;3.40;2.10;;;14.50;99.90;;;;;;5063072;28;20483;-91
2023/10/23 22:17:03;;;;;;;5.47;2.50;;;14.70;99.90;;;;;;5059374;28;20446;-89
2023/10/23 22:19:44;;;;;;;2.30;2.07;;;14.60;99.90;;;;;;5079646;28;20514;-88
2023/10/23 22:25:00;;;;;;;2.63;2.03;;;14.60;99.90;;;;;;5231225;22;20520;-93
2023/10/23 22:27:44;;;;;;;3.63;1.93;;;14.70;99.90;;;;;;5007363;28;20451;-90
2023/10/23 22:30:37;;;;;;;3.97;2.10;;;14.70;99.90;;;;;;4999790;28;20486;-88
2023/10/23 22:33:39;;;;;;;3.23;2.47;;;14.60;99.90;;;;;;4962772;28;20448;-87
2023/10/23 22:36:20;;;;;;;2.30;2.10;;;14.70;99.90;;;;;;4970734;28;20475;-88
2023/10/23 22:38:52;;;;;;;1.93;1.83;;;14.50;99.90;;;;;;4978556;28;20471;-88
2023/10/23 22:45:24;;;;;;;3.17;1.93;;;14.60;99.90;;;;;;4981398;28;20474;-89
2023/10/23 22:48:34;;;;;;;2.10;1.90;;;14.50;99.90;;;;;;4977449;28;20448;-89
2023/10/23 22:51:34;;;;;;;2.93;2.10;;;14.40;99.90;;;;;;4978698;28;20503;-89
2023/10/23 22:54:23;;;;;;;6.13;2.10;;;14.60;99.90;;;;;;4946607;28;20464;-89
2023/10/23 22:57:35;;;;;;;2.77;1.80;;;14.80;99.90;;;;;;4966201;28;20496;-87
2023/10/23 23:01:03;;;;;;;3.10;2.33;;;14.90;99.90;;;;;;4939383;28;20826;-90
2023/10/23 23:04:08;;;;;;;4.10;2.53;;;14.90;99.90;;;;;;4967172;28;20570;-87
2023/10/23 23:07:19;;;;;;;3.63;2.37;;;14.80;99.90;;;;;;5033783;28;20457;-88
2023/10/23 23:14:37;;;;;;;4.83;2.90;;;14.60;99.90;;;;;;5059248;28;20432;-88
2023/10/23 23:17:56;;;;;;;2.23;2.00;;;14.70;99.90;;;;;;4938979;28;20520;-88
2023/10/23 23:20:34;;;;;;;2.97;2.60;;;14.60;99.90;;;;;;4996764;28;20486;-88
2023/10/23 23:23:32;;;;;;;4.53;2.60;;;14.90;99.90;;;;;;5052828;28;20431;-91
2023/10/23 23:26:27;;;;;;;2.70;2.50;;;14.80;99.90;;;;;;5058588;28;20445;-88
2023/10/23 23:29:17;;;;;;;3.80;2.70;;;14.90;99.90;;;;;;5044480;28;20522;-88
2023/10/23 23:31:47;;;;;;;3.00;2.70;;;14.80;99.90;;;;;;5040228;28;20721;-87
2023/10/23 23:34:29;;;;;;;4.43;3.00;;;14.90;99.90;;;;;;5041088;28;20454;-89
2023/10/23 23:37:32;;;;;;;3.30;2.77;;;14.80;99.90;;;;;;5043690;28;20482;-87
2023/10/23 23:40:27;;;;;;;5.00;3.10;;;14.60;99.90;;;;;;5037277;28;20433;-88
2023/10/23 23:43:18;;;;;;;3.03;2.83;;;14.90;99.90;;;;;;5035164;28;20457;-89
2023/10/23 23:45:57;;;;;;;4.40;2.80;;;15.00;99.90;;;;;;5050793;28;20523;-88
2023/10/23 23:49:14;;;;;;;3.30;2.90;;;14.90;99.90;;;;;;5017438;28;20887;-88
2023/10/23 23:52:23;;;;;;;6.77;3.53;;;14.90;99.90;;;;;;5044247;28;20479;-89
2023/10/23 23:55:50;;;;;;;3.10;2.83;;;14.80;99.90;;;;;;5026372;28;20456;-87
2023/10/23 23:58:45;;;;;;;3.13;2.83;;;14.80;99.90;;;;;;5055025;28;20424;-88
